createdAt,value
2018-12-30T00:00:44.220Z,81.33
2018-12-30T00:03:11.640Z,81.36
2018-12-30T00:05:39.180Z,81.93
2018-12-30T00:08:06.626Z,81.42
2018-12-30T00:10:34.069Z,81.50
2018-12-30T00:13:01.532Z,81.45
2018-12-30T00:15:29.009Z,81.86
2018-12-30T00:17:56.490Z,82.06
2018-12-30T00:20:23.956Z,82.56
2018-12-30T00:22:51.457Z,82.65
2018-12-30T00:25:18.922Z,82.61
2018-12-30T00:27:46.360Z,82.71
2018-12-30T00:30:13.803Z,82.12
2018-12-30T00:32:41.282Z,82.85
2018-12-30T00:35:08.801Z,83.75
2018-12-30T00:37:36.206Z,84.07
2018-12-30T00:40:03.706Z,84.58
2018-12-30T00:42:31.165Z,84.55
2018-12-30T00:44:58.631Z,83.82
2018-12-30T00:47:26.081Z,83.90
2018-12-30T00:49:53.588Z,84.54
2018-12-30T00:52:21.052Z,84.37
2018-12-30T00:54:48.587Z,83.90
2018-12-30T00:57:16.027Z,84.70
2018-12-30T00:59:43.514Z,85.03
2018-12-30T01:02:10.947Z,84.92
2018-12-30T01:04:38.418Z,85.55
2018-12-30T01:07:05.878Z,85.73
2018-12-30T01:09:33.349Z,84.90
2018-12-30T01:12:00.905Z,85.11
2018-12-30T01:14:28.386Z,85.22
2018-12-30T01:16:55.853Z,85.52
2018-12-30T01:19:23.287Z,85.58
2018-12-30T01:21:50.759Z,85.90
2018-12-30T01:24:18.219Z,86.26
2018-12-30T01:26:45.685Z,86.25
2018-12-30T01:29:13.159Z,86.27
2018-12-30T01:31:40.622Z,85.49
2018-12-30T01:34:08.089Z,85.14
2018-12-30T01:36:37.762Z,85.65
2018-12-30T01:39:05.203Z,85.43
2018-12-30T01:41:32.674Z,85.43
2018-12-30T01:44:00.155Z,86.03
2018-12-30T01:46:27.598Z,85.09
2018-12-30T01:48:55.341Z,84.46
2018-12-30T01:51:23.023Z,85.17
2018-12-30T01:53:50.711Z,85.02
2018-12-30T01:56:18.353Z,84.28
2018-12-30T01:58:47.320Z,83.72
2018-12-30T02:01:14.779Z,83.52
2018-12-30T02:03:42.443Z,83.58
2018-12-30T02:06:09.950Z,82.58
2018-12-30T02:08:37.411Z,82.84
2018-12-30T02:11:04.884Z,82.80
2018-12-30T02:13:32.449Z,82.54
2018-12-30T02:16:00.698Z,82.22
2018-12-30T02:18:28.225Z,82.71
2018-12-30T02:20:55.682Z,81.86
2018-12-30T02:23:23.343Z,81.88
2018-12-30T02:25:50.937Z,81.67
2018-12-30T02:28:18.429Z,81.59
2018-12-30T02:30:45.901Z,81.86
2018-12-30T02:33:13.371Z,82.03
2018-12-30T02:35:40.851Z,81.86
2018-12-30T02:38:08.299Z,81.52
2018-12-30T02:40:35.832Z,81.86
2018-12-30T02:43:03.322Z,81.01
2018-12-30T02:45:30.789Z,81.03
2018-12-30T02:47:58.277Z,80.09
2018-12-30T02:50:25.897Z,80.22
2018-12-30T02:52:53.344Z,79.94
2018-12-30T02:55:20.928Z,79.72
2018-12-30T02:57:48.355Z,79.42
2018-12-30T03:00:15.813Z,79.46
2018-12-30T03:02:43.251Z,78.84
2018-12-30T03:05:10.721Z,79.53
2018-12-30T03:07:38.179Z,79.15
2018-12-30T03:10:05.636Z,79.20
2018-12-30T03:12:33.096Z,78.92
2018-12-30T03:15:00.558Z,79.02
2018-12-30T03:17:27.995Z,79.12
2018-12-30T03:19:55.455Z,79.12
2018-12-30T03:22:22.922Z,79.92
2018-12-30T03:24:50.399Z,80.11
2018-12-30T03:27:17.817Z,79.75
2018-12-30T03:29:45.282Z,81.41
2018-12-30T03:32:15.074Z,81.40
2018-12-30T03:34:42.547Z,82.15
2018-12-30T03:37:10.005Z,82.31
2018-12-30T03:39:37.446Z,81.91
2018-12-30T03:42:04.912Z,82.05
2018-12-30T03:44:32.328Z,81.56
2018-12-30T03:46:59.770Z,81.51
2018-12-30T03:49:27.251Z,80.84
2018-12-30T03:51:54.718Z,81.46
2018-12-30T03:54:22.158Z,82.23
2018-12-30T03:56:49.594Z,81.73
2018-12-30T03:59:17.015Z,81.73
2018-12-30T04:01:44.474Z,82.48
2018-12-30T04:04:11.916Z,82.23
2018-12-30T04:06:40.106Z,81.58
2018-12-30T04:09:09.205Z,81.80
2018-12-30T04:11:36.649Z,81.33
2018-12-30T04:14:04.114Z,81.79
2018-12-30T04:16:31.528Z,81.72
2018-12-30T04:18:58.980Z,81.80
2018-12-30T04:21:26.432Z,82.36
2018-12-30T04:23:53.889Z,83.07
2018-12-30T04:26:21.401Z,82.57
2018-12-30T04:28:48.873Z,81.63
2018-12-30T04:31:16.310Z,82.44
2018-12-30T04:33:43.776Z,82.70
2018-12-30T04:36:11.211Z,82.33
2018-12-30T04:38:38.656Z,82.69
2018-12-30T04:41:06.131Z,83.09
2018-12-30T04:43:33.671Z,82.77
2018-12-30T04:46:01.094Z,82.79
2018-12-30T04:48:28.524Z,82.85
2018-12-30T04:50:55.965Z,82.28
2018-12-30T04:53:23.404Z,82.56
2018-12-30T04:55:50.858Z,82.25
2018-12-30T04:58:18.322Z,82.40
2018-12-30T05:00:45.768Z,82.37
2018-12-30T05:03:13.215Z,82.79
2018-12-30T05:05:40.702Z,82.87
2018-12-30T05:08:08.166Z,83.21
2018-12-30T05:10:35.619Z,83.60
2018-12-30T05:13:03.054Z,83.33
2018-12-30T05:15:30.505Z,83.65
2018-12-30T05:17:57.937Z,83.42
2018-12-30T05:20:25.375Z,83.23
2018-12-30T05:22:52.824Z,82.33
2018-12-30T05:25:20.268Z,81.99
2018-12-30T05:27:47.695Z,82.50
2018-12-30T05:30:15.131Z,83.22
2018-12-30T05:32:42.571Z,83.59
2018-12-30T05:35:10.000Z,83.43
2018-12-30T05:37:37.525Z,83.55
2018-12-30T05:40:04.986Z,83.20
2018-12-30T05:42:32.408Z,83.91
2018-12-30T05:44:59.850Z,83.20
2018-12-30T05:47:27.377Z,83.47
2018-12-30T05:49:54.815Z,83.73
2018-12-30T05:52:22.269Z,83.25
2018-12-30T05:54:49.704Z,82.42
2018-12-30T05:57:17.139Z,83.39
2018-12-30T05:59:44.571Z,84.22
2018-12-30T06:02:11.991Z,83.99
2018-12-30T06:04:39.431Z,84.42
2018-12-30T06:07:06.894Z,83.86
2018-12-30T06:09:34.316Z,84.32
2018-12-30T06:12:01.790Z,83.81
2018-12-30T06:14:29.250Z,84.02
2018-12-30T06:16:56.691Z,84.39
2018-12-30T06:19:24.145Z,85.12
2018-12-30T06:21:51.583Z,84.92
2018-12-30T06:24:19.024Z,84.68
2018-12-30T06:26:46.464Z,85.01
2018-12-30T06:29:13.935Z,85.23
2018-12-30T06:31:41.386Z,85.14
2018-12-30T06:34:11.335Z,84.05
2018-12-30T06:36:38.770Z,83.98
2018-12-30T06:39:08.081Z,84.64
2018-12-30T06:41:35.524Z,83.88
2018-12-30T06:44:02.923Z,84.23
2018-12-30T06:46:30.362Z,84.81
2018-12-30T06:48:57.829Z,84.37
2018-12-30T06:51:25.284Z,84.50
2018-12-30T06:53:52.739Z,85.00
2018-12-30T06:56:20.164Z,84.17
2018-12-30T06:58:47.604Z,83.58
2018-12-30T07:01:15.098Z,84.27
2018-12-30T07:03:42.496Z,84.31
2018-12-30T07:06:09.921Z,85.16
2018-12-30T07:08:37.377Z,85.34
2018-12-30T07:11:04.838Z,85.75
2018-12-30T07:13:32.301Z,85.62
2018-12-30T07:15:59.726Z,86.07
2018-12-30T07:18:27.215Z,85.95
2018-12-30T07:20:55.492Z,85.09
2018-12-30T07:23:23.059Z,86.07
2018-12-30T07:25:50.491Z,85.83
2018-12-30T07:28:17.967Z,85.16
2018-12-30T07:30:45.401Z,85.81
2018-12-30T07:33:15.554Z,85.46
2018-12-30T07:35:43.001Z,85.57
2018-12-30T07:38:10.445Z,85.72
2018-12-30T07:40:37.925Z,85.40
2018-12-30T07:43:05.384Z,84.79
2018-12-30T07:45:32.844Z,85.79
2018-12-30T07:48:00.272Z,85.92
2018-12-30T07:50:27.731Z,85.94
2018-12-30T07:52:55.157Z,85.77
2018-12-30T07:55:22.593Z,85.39
2018-12-30T07:57:50.059Z,85.47
2018-12-30T08:00:17.527Z,86.00
2018-12-30T08:02:44.951Z,85.43
2018-12-30T08:05:12.401Z,86.22
2018-12-30T08:07:39.853Z,86.19
2018-12-30T08:10:07.275Z,85.74
2018-12-30T08:12:34.727Z,86.10
2018-12-30T08:15:02.172Z,85.79
2018-12-30T08:17:29.639Z,86.08
2018-12-30T08:19:57.070Z,85.42
2018-12-30T08:22:24.503Z,85.83
2018-12-30T08:24:52.141Z,85.94
2018-12-30T08:27:19.581Z,86.13
2018-12-30T08:29:47.034Z,85.72
2018-12-30T08:32:14.468Z,86.03
2018-12-30T08:34:41.999Z,86.12
2018-12-30T08:37:09.427Z,85.86
2018-12-30T08:39:36.991Z,86.59
2018-12-30T08:42:04.434Z,86.49
2018-12-30T08:44:31.943Z,86.39
2018-12-30T08:46:59.388Z,86.60
2018-12-30T08:49:26.884Z,85.99
2018-12-30T08:51:54.301Z,85.50
2018-12-30T08:54:21.753Z,85.77
2018-12-30T08:56:49.253Z,86.03
2018-12-30T08:59:16.689Z,86.13
2018-12-30T09:01:44.125Z,85.27
2018-12-30T09:04:11.587Z,84.85
2018-12-30T09:06:39.789Z,85.19
2018-12-30T09:09:07.221Z,84.58
2018-12-30T09:11:34.699Z,84.89
2018-12-30T09:14:02.179Z,84.90
2018-12-30T09:16:29.592Z,84.86
2018-12-30T09:18:57.049Z,85.13
2018-12-30T09:21:24.576Z,84.69
2018-12-30T09:23:52.007Z,84.61
2018-12-30T09:26:19.451Z,84.57
2018-12-30T09:28:46.863Z,84.53
2018-12-30T09:31:14.325Z,84.26
2018-12-30T09:33:41.815Z,84.43
2018-12-30T09:36:09.231Z,83.90
2018-12-30T09:38:36.674Z,84.21
2018-12-30T09:41:04.132Z,83.94
2018-12-30T09:43:31.565Z,83.69
2018-12-30T09:45:59.013Z,84.56
2018-12-30T09:48:33.780Z,83.55
2018-12-30T09:50:54.663Z,83.69
2018-12-30T09:53:22.101Z,83.74
2018-12-30T09:55:49.553Z,83.60
2018-12-30T09:58:17.033Z,83.10
2018-12-30T10:00:44.478Z,83.34
2018-12-30T10:03:11.926Z,83.73
2018-12-30T10:05:39.370Z,83.37
2018-12-30T10:08:06.809Z,83.60
2018-12-30T10:10:34.277Z,84.06
2018-12-30T10:13:01.717Z,84.21
2018-12-30T10:15:29.159Z,83.88
2018-12-30T10:17:56.645Z,84.05
2018-12-30T10:20:24.063Z,83.99
2018-12-30T10:22:58.658Z,84.25
2018-12-30T10:25:18.975Z,84.32
2018-12-30T10:27:46.444Z,84.00
2018-12-30T10:30:13.861Z,83.92
2018-12-30T10:32:41.291Z,84.36
2018-12-30T10:35:08.742Z,84.21
2018-12-30T10:37:36.163Z,84.76
2018-12-30T10:40:03.618Z,84.29
2018-12-30T10:42:31.053Z,84.92
2018-12-30T10:44:58.501Z,84.91
2018-12-30T10:47:25.939Z,85.28
2018-12-30T10:49:53.419Z,84.85
2018-12-30T10:52:20.854Z,84.76
2018-12-30T10:54:48.329Z,84.26
2018-12-30T10:57:16.537Z,84.53
2018-12-30T10:59:44.055Z,84.91
2018-12-30T11:02:11.499Z,85.34
2018-12-30T11:04:38.937Z,85.00
2018-12-30T11:07:06.396Z,84.35
2018-12-30T11:09:34.093Z,85.36
2018-12-30T11:12:01.544Z,85.18
2018-12-30T11:14:28.984Z,85.24
2018-12-30T11:16:56.441Z,85.29
2018-12-30T11:19:23.935Z,85.64
2018-12-30T11:21:51.372Z,84.97
2018-12-30T11:24:18.825Z,84.87
2018-12-30T11:26:46.276Z,84.89
2018-12-30T11:29:13.730Z,85.23
2018-12-30T11:31:41.174Z,84.68
2018-12-30T11:34:08.622Z,85.06
2018-12-30T11:36:36.054Z,85.03
2018-12-30T11:39:03.537Z,84.74
2018-12-30T11:41:30.970Z,84.89
2018-12-30T11:43:58.409Z,84.91
2018-12-30T11:46:25.871Z,85.30
2018-12-30T11:48:53.288Z,85.16
2018-12-30T11:51:20.787Z,85.57
2018-12-30T11:53:48.232Z,85.29
2018-12-30T11:56:17.524Z,85.12
2018-12-30T11:58:44.957Z,85.23
2018-12-30T12:01:12.401Z,84.80
2018-12-30T12:03:39.861Z,84.65
2018-12-30T12:06:07.279Z,85.27
2018-12-30T12:08:34.733Z,85.17
2018-12-30T12:11:02.156Z,85.58
2018-12-30T12:13:29.624Z,85.15
2018-12-30T12:15:57.058Z,85.54
2018-12-30T12:18:25.300Z,85.48
2018-12-30T12:20:52.851Z,85.37
2018-12-30T12:23:20.284Z,85.65
2018-12-30T12:25:47.713Z,85.73
2018-12-30T12:28:15.151Z,85.90
2018-12-30T12:30:43.574Z,85.77
2018-12-30T12:33:11.088Z,85.85
2018-12-30T12:35:38.549Z,85.87
2018-12-30T12:38:06.007Z,86.10
2018-12-30T12:40:33.451Z,85.80
2018-12-30T12:43:00.899Z,85.85
2018-12-30T12:45:30.035Z,85.41
2018-12-30T12:47:57.578Z,85.80
2018-12-30T12:50:25.009Z,85.63
2018-12-30T12:52:52.443Z,85.39
2018-12-30T12:55:19.868Z,85.26
2018-12-30T12:57:47.332Z,85.22
2018-12-30T13:00:14.794Z,85.18
2018-12-30T13:02:42.280Z,85.30
2018-12-30T13:05:09.708Z,85.22
2018-12-30T13:07:38.067Z,84.87
2018-12-30T13:10:05.581Z,85.55
2018-12-30T13:12:33.018Z,84.98
2018-12-30T13:15:00.487Z,85.18
2018-12-30T13:17:27.967Z,85.01
2018-12-30T13:19:55.431Z,84.86
2018-12-30T13:22:22.864Z,85.29
2018-12-30T13:24:50.290Z,85.03
2018-12-30T13:27:17.771Z,85.67
2018-12-30T13:29:45.223Z,85.39
2018-12-30T13:32:12.706Z,85.36
2018-12-30T13:34:40.212Z,85.00
2018-12-30T13:37:07.854Z,85.51
2018-12-30T13:39:35.365Z,85.74
2018-12-30T13:42:02.843Z,85.91
2018-12-30T13:44:30.290Z,85.59
2018-12-30T13:46:57.740Z,85.68
2018-12-30T13:49:25.206Z,86.17
2018-12-30T13:51:53.327Z,86.01
2018-12-30T13:54:20.148Z,85.71
2018-12-30T13:56:47.682Z,86.03
2018-12-30T13:59:16.203Z,86.22
2018-12-30T14:01:45.370Z,86.28
2018-12-30T14:04:17.266Z,86.03
2018-12-30T14:06:44.935Z,86.02
2018-12-30T14:09:12.361Z,85.85
2018-12-30T14:11:39.875Z,86.12
2018-12-30T14:14:07.307Z,86.33
2018-12-30T14:16:34.779Z,86.31
2018-12-30T14:19:02.241Z,86.55
2018-12-30T14:21:29.689Z,86.98
2018-12-30T14:23:57.151Z,87.60
2018-12-30T14:26:24.612Z,88.39
2018-12-30T14:28:52.046Z,88.24
2018-12-30T14:31:19.491Z,88.06
2018-12-30T14:33:46.939Z,88.83
2018-12-30T14:36:14.386Z,89.29
2018-12-30T14:38:44.083Z,88.94
2018-12-30T14:41:11.511Z,89.82
2018-12-30T14:43:38.969Z,89.74
2018-12-30T14:46:06.430Z,89.79
2018-12-30T14:48:33.892Z,89.97
2018-12-30T14:51:01.382Z,89.83
2018-12-30T14:53:28.814Z,90.09
2018-12-30T14:55:56.328Z,90.19
2018-12-30T14:58:23.788Z,90.35
2018-12-30T15:00:51.216Z,90.62
2018-12-30T15:03:18.703Z,91.48
2018-12-30T15:05:46.152Z,91.29
2018-12-30T15:08:13.613Z,90.70
2018-12-30T15:10:41.071Z,91.06
2018-12-30T15:13:08.511Z,90.82
2018-12-30T15:15:35.956Z,91.08
2018-12-30T15:18:03.407Z,90.88
2018-12-30T15:20:30.837Z,90.88
2018-12-30T15:22:58.290Z,90.74
2018-12-30T15:25:25.746Z,90.26
2018-12-30T15:27:53.194Z,89.92
2018-12-30T15:30:20.672Z,89.65
2018-12-30T15:32:48.121Z,89.66
2018-12-30T15:35:15.554Z,90.06
2018-12-30T15:37:44.420Z,89.19
2018-12-30T15:40:12.007Z,88.51
2018-12-30T15:42:39.463Z,88.78
2018-12-30T15:45:06.882Z,88.31
2018-12-30T15:47:34.334Z,88.66
2018-12-30T15:50:01.768Z,88.48
2018-12-30T15:52:29.212Z,87.96
2018-12-30T15:54:56.627Z,87.91
2018-12-30T15:57:24.075Z,88.27
2018-12-30T15:59:51.513Z,87.59
2018-12-30T16:02:18.977Z,87.53
2018-12-30T16:04:46.393Z,87.19
2018-12-30T16:07:13.887Z,87.46
2018-12-30T16:09:41.345Z,87.96
2018-12-30T16:12:08.779Z,88.01
2018-12-30T16:14:36.257Z,87.94
2018-12-30T16:17:03.682Z,88.08
2018-12-30T16:19:31.134Z,88.11
2018-12-30T16:21:58.574Z,88.49
2018-12-30T16:24:26.041Z,87.98
2018-12-30T16:26:53.491Z,87.83
2018-12-30T16:29:20.926Z,88.92
2018-12-30T16:31:48.386Z,89.33
2018-12-30T16:34:16.685Z,89.46
2018-12-30T16:36:44.253Z,89.81
2018-12-30T16:39:11.698Z,89.88
2018-12-30T16:41:39.144Z,89.43
2018-12-30T16:44:06.652Z,89.57
2018-12-30T16:46:34.187Z,89.62
2018-12-30T16:49:01.560Z,90.29
2018-12-30T16:51:29.009Z,90.19
2018-12-30T16:53:56.446Z,90.10
2018-12-30T16:56:23.907Z,90.31
2018-12-30T16:58:51.345Z,91.10
2018-12-30T17:01:18.793Z,91.27
2018-12-30T17:03:46.249Z,91.23
2018-12-30T17:06:14.534Z,90.68
2018-12-30T17:08:41.235Z,90.42
2018-12-30T17:11:08.695Z,90.94
2018-12-30T17:13:36.161Z,91.54
2018-12-30T17:16:03.625Z,90.69
2018-12-30T17:18:31.071Z,90.82
2018-12-30T17:20:59.205Z,90.96
2018-12-30T17:23:26.803Z,90.18
2018-12-30T17:25:54.245Z,91.12
2018-12-30T17:28:21.697Z,91.02
2018-12-30T17:30:49.144Z,91.88
2018-12-30T17:33:16.591Z,94.87
2018-12-30T17:35:44.028Z,92.54
2018-12-30T17:38:11.493Z,92.52
2018-12-30T17:40:38.959Z,92.40
2018-12-30T17:43:06.409Z,92.21
2018-12-30T17:45:34.930Z,92.82
2018-12-30T17:48:02.437Z,92.75
2018-12-30T17:50:30.581Z,93.20
2018-12-30T17:52:58.023Z,92.85
2018-12-30T17:55:25.499Z,92.97
2018-12-30T17:57:52.956Z,93.61
2018-12-30T18:00:20.386Z,93.30
2018-12-30T18:02:47.837Z,92.86
2018-12-30T18:05:15.270Z,93.14
2018-12-30T18:07:42.738Z,93.32
2018-12-30T18:10:10.198Z,93.55
2018-12-30T18:12:39.397Z,93.60
2018-12-30T18:15:06.893Z,93.24
2018-12-30T18:17:41.178Z,92.79
2018-12-30T18:20:01.852Z,93.33
2018-12-30T18:22:29.273Z,93.25
2018-12-30T18:24:56.721Z,93.22
2018-12-30T18:27:24.175Z,92.38
2018-12-30T18:29:51.625Z,92.50
2018-12-30T18:32:19.113Z,93.69
2018-12-30T18:34:46.556Z,93.86
2018-12-30T18:37:14.002Z,94.19
2018-12-30T18:39:41.463Z,94.78
2018-12-30T18:42:08.913Z,94.37
2018-12-30T18:44:36.367Z,93.65
2018-12-30T18:47:03.799Z,93.40
2018-12-30T18:49:31.219Z,94.07
2018-12-30T18:51:58.687Z,93.56
2018-12-30T18:54:26.142Z,93.91
2018-12-30T18:56:53.581Z,94.03
2018-12-30T18:59:20.995Z,94.19
2018-12-30T19:01:48.454Z,94.56
2018-12-30T19:04:15.924Z,93.73
2018-12-30T19:06:43.372Z,93.19
2018-12-30T19:09:10.841Z,92.93
2018-12-30T19:11:38.276Z,93.31
2018-12-30T19:14:05.714Z,93.43
2018-12-30T19:16:33.177Z,93.35
2018-12-30T19:19:00.641Z,93.92
2018-12-30T19:21:28.203Z,93.91
2018-12-30T19:23:55.636Z,93.78
2018-12-30T19:26:23.079Z,93.51
2018-12-30T19:28:50.526Z,93.13
2018-12-30T19:31:17.988Z,92.65
2018-12-30T19:33:45.479Z,93.19
2018-12-30T19:36:12.901Z,92.94
2018-12-30T19:41:30.913Z,92.74
2018-12-30T19:43:58.351Z,93.22
2018-12-30T19:46:25.809Z,93.59
2018-12-30T19:48:53.253Z,93.71
2018-12-30T19:51:20.687Z,93.70
2018-12-30T19:53:48.162Z,94.26
2018-12-30T19:56:21.858Z,94.15
2018-12-30T19:58:43.057Z,93.45
2018-12-30T20:01:10.479Z,94.23
2018-12-30T20:03:37.931Z,94.38
2018-12-30T20:06:05.379Z,93.47
2018-12-30T20:08:32.847Z,93.77
2018-12-30T20:11:00.295Z,94.16
2018-12-30T20:13:27.740Z,93.86
2018-12-30T20:15:55.188Z,94.46
2018-12-30T20:18:22.623Z,94.34
2018-12-30T20:20:50.051Z,94.17
2018-12-30T20:23:18.253Z,93.52
2018-12-30T20:25:45.744Z,93.54
2018-12-30T20:28:13.217Z,93.86
2018-12-30T20:30:40.694Z,94.09
2018-12-30T20:33:08.128Z,93.78
2018-12-30T20:35:35.585Z,93.82
2018-12-30T20:38:03.067Z,94.58
2018-12-30T20:40:30.496Z,95.38
2018-12-30T20:42:57.939Z,94.64
2018-12-30T20:45:25.398Z,94.85
2018-12-30T20:47:52.869Z,95.75
2018-12-30T20:50:20.319Z,95.62
2018-12-30T20:52:47.779Z,95.47
2018-12-30T20:55:15.212Z,94.67
2018-12-30T20:57:42.666Z,94.40
2018-12-30T21:00:10.162Z,95.52
2018-12-30T21:02:37.638Z,95.53
2018-12-30T21:05:05.092Z,94.95
2018-12-30T21:07:32.634Z,94.75
2018-12-30T21:10:00.191Z,94.87
2018-12-30T21:12:27.669Z,95.15
2018-12-30T21:14:55.091Z,94.74
2018-12-30T21:17:22.558Z,94.21
2018-12-30T21:19:50.000Z,94.55
2018-12-30T21:22:17.527Z,94.25
2018-12-30T21:24:45.151Z,94.36
2018-12-30T21:27:12.633Z,94.23
2018-12-30T21:29:40.218Z,94.64
2018-12-30T21:32:07.646Z,94.78
2018-12-30T21:34:35.078Z,94.28
2018-12-30T21:37:02.721Z,94.31
2018-12-30T21:39:30.216Z,94.69
2018-12-30T21:41:57.670Z,94.44
2018-12-30T21:44:25.165Z,94.49
2018-12-30T21:46:52.705Z,94.09
2018-12-30T21:49:20.143Z,94.42
2018-12-30T21:51:47.602Z,94.88
2018-12-30T21:54:15.086Z,94.79
2018-12-30T21:56:42.854Z,94.61
2018-12-30T21:59:10.326Z,95.87
2018-12-30T22:01:37.802Z,95.33
2018-12-30T22:04:05.241Z,94.85
2018-12-30T22:06:32.703Z,95.09
2018-12-30T22:09:00.147Z,95.44
2018-12-30T22:11:27.633Z,95.10
2018-12-30T22:13:55.828Z,95.03
2018-12-30T22:16:23.315Z,95.20
2018-12-30T22:18:50.800Z,96.59
2018-12-30T22:21:18.290Z,96.76
2018-12-30T22:23:45.750Z,96.59
2018-12-30T22:26:13.216Z,96.52
2018-12-30T22:28:40.671Z,96.30
2018-12-30T22:31:08.193Z,95.89
2018-12-30T22:33:35.685Z,95.65
2018-12-30T22:36:03.111Z,95.95
2018-12-30T22:38:30.681Z,95.70
2018-12-30T22:40:59.151Z,95.64
2018-12-30T22:43:26.674Z,95.12
2018-12-30T22:45:54.347Z,95.52
2018-12-30T22:48:21.803Z,96.98
2018-12-30T22:50:49.243Z,96.25
2018-12-30T22:53:17.624Z,96.37
2018-12-30T22:55:45.085Z,96.25
2018-12-30T22:58:12.662Z,96.08
2018-12-30T23:00:45.570Z,95.68
2018-12-30T23:03:13.062Z,96.02
2018-12-30T23:05:40.538Z,95.88
2018-12-30T23:08:08.016Z,95.77
2018-12-30T23:10:35.455Z,96.01
2018-12-30T23:13:03.082Z,96.60
2018-12-30T23:15:30.523Z,96.43
2018-12-30T23:17:57.985Z,96.35
2018-12-30T23:20:25.537Z,95.89
2018-12-30T23:22:52.986Z,96.13
2018-12-30T23:25:20.470Z,95.96
2018-12-30T23:27:47.906Z,95.71
2018-12-30T23:30:15.337Z,95.92
2018-12-30T23:32:42.814Z,96.27
2018-12-30T23:35:10.332Z,96.05
2018-12-30T23:37:37.787Z,96.18
2018-12-30T23:40:05.249Z,96.46
2018-12-30T23:42:32.758Z,96.22
2018-12-30T23:45:00.298Z,96.06
2018-12-30T23:47:27.744Z,96.54
2018-12-30T23:49:55.210Z,96.92
2018-12-30T23:52:22.677Z,97.27
2018-12-30T23:54:50.121Z,96.96
2018-12-30T23:57:17.596Z,97.09
2018-12-30T23:59:45.067Z,96.71
